createdAt,value
2022-11-29T00:00:09.866Z,100261.78
2022-11-29T00:02:39.408Z,100268.47
2022-11-29T00:05:08.688Z,100254.75
2022-11-29T00:07:38.197Z,100256.81
2022-11-29T00:10:09.235Z,100257.44
2022-11-29T00:12:38.011Z,100252.44
2022-11-29T00:15:07.189Z,100254.16
2022-11-29T00:17:36.767Z,100246.16
2022-11-29T00:20:05.656Z,100245.31
2022-11-29T00:22:34.421Z,100251.66
2022-11-29T00:25:02.206Z,100237.69
2022-11-29T00:27:31.957Z,100241.09
2022-11-29T00:29:59.771Z,100240.38
2022-11-29T00:32:28.675Z,100242.81
2022-11-29T00:34:59.473Z,100237.66
2022-11-29T00:37:28.415Z,100231.59
2022-11-29T00:39:57.228Z,100235.03
2022-11-29T00:42:25.816Z,100249.13
2022-11-29T00:44:53.626Z,100235.16
2022-11-29T00:47:22.363Z,100225.59
2022-11-29T00:49:50.149Z,100226.22
2022-11-29T00:52:18.670Z,100218.56
2022-11-29T00:54:48.282Z,100214.31
2022-11-29T00:57:16.993Z,100214.13
2022-11-29T00:59:45.666Z,100212.25
2022-11-29T01:02:14.326Z,100208.00
2022-11-29T01:04:43.536Z,100213.78
2022-11-29T01:07:13.287Z,100209.59
2022-11-29T01:09:41.143Z,100201.78
2022-11-29T01:12:10.658Z,100207.03
2022-11-29T01:14:39.433Z,100209.50
2022-11-29T01:17:07.265Z,100214.03
2022-11-29T01:19:37.355Z,100206.97
2022-11-29T01:22:06.802Z,100216.81
2022-11-29T01:24:34.534Z,100203.81
2022-11-29T01:27:03.226Z,100208.03
2022-11-29T01:29:32.652Z,100198.22
2022-11-29T01:32:00.367Z,100206.25
2022-11-29T01:34:28.130Z,100199.28
2022-11-29T01:36:56.802Z,100199.19
2022-11-29T01:39:24.616Z,100198.06
2022-11-29T01:41:53.179Z,100194.03
2022-11-29T01:44:22.534Z,100187.66
2022-11-29T01:46:50.497Z,100173.72
2022-11-29T01:49:38.676Z,100186.00
2022-11-29T01:52:26.128Z,100190.09
2022-11-29T01:55:02.935Z,100186.00
2022-11-29T01:57:32.050Z,100190.53
2022-11-29T02:00:11.203Z,100178.19
2022-11-29T02:02:54.211Z,100177.34
2022-11-29T02:05:24.272Z,100184.91
2022-11-29T02:07:57.927Z,100185.09
2022-11-29T02:11:10.088Z,100182.50
2022-11-29T02:14:26.848Z,100190.50
2022-11-29T02:17:30.294Z,100187.66
2022-11-29T02:21:04.212Z,100186.94
2022-11-29T02:24:11.677Z,100183.31
2022-11-29T02:27:01.644Z,100189.25
2022-11-29T02:30:03.562Z,100192.94
2022-11-29T02:32:44.820Z,100195.56
2022-11-29T02:35:52.036Z,100189.44
2022-11-29T02:39:00.533Z,100190.94
2022-11-29T02:41:30.995Z,100190.84
2022-11-29T02:44:12.385Z,100194.53
2022-11-29T02:47:09.469Z,100191.78
2022-11-29T02:49:48.953Z,100186.78
2022-11-29T02:52:51.028Z,100189.28
2022-11-29T02:55:52.827Z,100199.84
2022-11-29T02:59:06.439Z,100192.84
2022-11-29T03:02:31.450Z,100203.63
2022-11-29T03:05:29.871Z,100198.50
2022-11-29T03:08:47.318Z,100202.53
2022-11-29T03:11:38.614Z,100207.88
2022-11-29T03:14:26.216Z,100209.56
2022-11-29T03:17:17.845Z,100210.47
2022-11-29T03:20:36.039Z,100215.75
2022-11-29T03:23:28.893Z,100212.03
2022-11-29T03:26:36.660Z,100207.78
2022-11-29T03:29:28.190Z,100200.91
2022-11-29T03:32:51.416Z,100216.63
2022-11-29T03:36:31.323Z,100202.63
2022-11-29T03:39:08.086Z,100214.38
2022-11-29T03:41:57.306Z,100219.41
2022-11-29T03:44:46.141Z,100220.38
2022-11-29T03:47:24.639Z,100225.59
2022-11-29T03:50:05.780Z,100229.19
2022-11-29T03:52:55.276Z,100224.69
2022-11-29T03:55:48.774Z,100232.66
2022-11-29T03:58:54.105Z,100226.34
2022-11-29T04:01:48.320Z,100223.81
2022-11-29T04:05:27.356Z,100223.81
2022-11-29T04:08:42.928Z,100224.03
2022-11-29T04:11:55.024Z,100234.59
2022-11-29T04:15:01.737Z,100232.81
2022-11-29T04:18:24.500Z,100222.19
2022-11-29T04:21:07.062Z,100229.88
2022-11-29T04:24:26.569Z,100236.94
2022-11-29T04:28:29.349Z,100245.50
2022-11-29T04:31:31.693Z,100235.72
2022-11-29T04:34:33.981Z,100234.28
2022-11-29T04:38:17.413Z,100235.78
2022-11-29T04:41:27.092Z,100236.66
2022-11-29T04:44:40.901Z,100241.34
2022-11-29T04:47:55.913Z,100242.00
2022-11-29T04:51:08.507Z,100241.25
2022-11-29T04:54:26.628Z,100236.00
2022-11-29T04:57:19.007Z,100245.88
2022-11-29T05:00:19.967Z,100255.41
2022-11-29T05:03:02.787Z,100254.63
2022-11-29T05:06:17.869Z,100259.75
2022-11-29T05:09:25.662Z,100263.13
2022-11-29T05:12:39.052Z,100255.38
2022-11-29T05:15:41.470Z,100254.63
2022-11-29T05:18:59.218Z,100254.50
2022-11-29T05:22:19.682Z,100254.63
2022-11-29T05:25:56.566Z,100260.78
2022-11-29T05:29:03.990Z,100262.53
2022-11-29T05:32:38.205Z,100255.38
2022-11-29T05:35:43.970Z,100256.94
2022-11-29T05:38:37.547Z,100257.66
2022-11-29T05:41:42.568Z,100252.38
2022-11-29T05:44:42.571Z,100254.19
2022-11-29T05:47:31.194Z,100254.19
2022-11-29T05:50:23.557Z,100256.03
2022-11-29T05:53:34.529Z,100261.91
2022-11-29T05:56:24.019Z,100263.31
2022-11-29T05:59:18.478Z,100266.63
2022-11-29T06:02:29.540Z,100268.38
2022-11-29T06:05:06.994Z,100268.09
2022-11-29T06:07:52.147Z,100263.03
2022-11-29T06:10:34.724Z,100257.63
2022-11-29T06:13:19.979Z,100268.09
2022-11-29T06:16:14.521Z,100269.16
2022-11-29T06:19:20.211Z,100266.41
2022-11-29T06:22:41.942Z,100264.44
2022-11-29T06:25:36.286Z,100271.38
2022-11-29T06:28:49.165Z,100272.38
2022-11-29T06:31:33.252Z,100272.28
2022-11-29T06:34:17.919Z,100273.97
2022-11-29T06:37:40.745Z,100282.00
2022-11-29T06:40:16.620Z,100283.97
2022-11-29T06:42:46.177Z,100280.22
2022-11-29T06:45:16.594Z,100280.03
2022-11-29T06:47:56.168Z,100277.63
2022-11-29T06:51:15.838Z,100278.72
2022-11-29T06:54:08.049Z,100276.84
2022-11-29T06:56:56.299Z,100281.91
2022-11-29T06:59:35.224Z,100285.66
2022-11-29T07:02:46.627Z,100285.66
2022-11-29T07:05:32.031Z,100284.59
2022-11-29T07:08:16.142Z,100286.09
2022-11-29T07:10:50.086Z,100286.88
2022-11-29T07:13:20.891Z,100286.13
2022-11-29T07:17:19.670Z,100289.94
2022-11-29T07:20:09.002Z,100298.28
2022-11-29T07:23:38.120Z,100295.78
2022-11-29T07:26:43.753Z,100297.31
2022-11-29T07:29:46.903Z,100297.91
2022-11-29T07:32:38.572Z,100304.59
2022-11-29T07:35:49.525Z,100301.19
2022-11-29T07:38:57.995Z,100299.19
2022-11-29T07:42:14.591Z,100293.97
2022-11-29T07:45:01.957Z,100297.09
2022-11-29T07:47:35.680Z,100307.69
2022-11-29T07:50:06.619Z,100309.69
2022-11-29T07:52:36.696Z,100305.25
2022-11-29T07:55:07.285Z,100311.59
2022-11-29T07:57:37.154Z,100310.66
2022-11-29T08:00:08.658Z,100315.75
2022-11-29T08:02:36.730Z,100309.59
2022-11-29T08:05:07.359Z,100311.41
2022-11-29T08:07:38.140Z,100310.38
2022-11-29T08:10:13.827Z,100309.50
2022-11-29T08:12:52.736Z,100310.03
2022-11-29T08:15:25.323Z,100311.03
2022-11-29T08:17:55.833Z,100316.91
2022-11-29T08:20:25.460Z,100307.56
2022-11-29T08:22:59.380Z,100303.03
2022-11-29T08:25:29.385Z,100299.47
2022-11-29T08:27:58.967Z,100300.53
2022-11-29T08:30:28.612Z,100300.22
2022-11-29T08:32:58.482Z,100306.25
2022-11-29T08:35:28.019Z,100308.03
2022-11-29T08:37:57.523Z,100304.59
2022-11-29T08:40:27.037Z,100292.38
2022-11-29T08:42:58.971Z,100295.25
2022-11-29T08:45:28.583Z,100298.44
2022-11-29T08:47:57.425Z,100305.19
2022-11-29T08:50:27.192Z,100311.72
2022-11-29T08:53:17.963Z,100299.78
2022-11-29T08:55:46.859Z,100304.31
2022-11-29T08:58:16.950Z,100310.44
2022-11-29T09:00:47.243Z,100299.66
2022-11-29T09:03:35.417Z,100310.25
2022-11-29T09:06:15.494Z,100306.69
2022-11-29T09:08:45.963Z,100297.41
2022-11-29T09:11:21.128Z,100308.72
2022-11-29T09:14:00.671Z,100309.34
2022-11-29T09:16:38.282Z,100306.81
2022-11-29T09:19:08.408Z,100297.25
2022-11-29T09:21:37.914Z,100295.03
2022-11-29T09:24:08.174Z,100306.09
2022-11-29T09:26:40.820Z,100298.94
2022-11-29T09:29:11.647Z,100305.94
2022-11-29T09:31:39.520Z,100296.75
2022-11-29T09:34:09.112Z,100294.03
2022-11-29T09:36:38.606Z,100295.72
2022-11-29T09:39:10.083Z,100291.19
2022-11-29T09:42:17.877Z,100297.09
2022-11-29T09:45:18.533Z,100295.81
2022-11-29T09:48:32.689Z,100287.22
2022-11-29T09:52:09.181Z,100285.75
2022-11-29T09:54:49.944Z,100283.31
2022-11-29T09:57:19.890Z,100285.50
2022-11-29T09:59:53.122Z,100283.47
2022-11-29T10:02:45.612Z,100284.00
2022-11-29T10:05:46.668Z,100281.31
2022-11-29T10:08:27.963Z,100276.56
2022-11-29T10:11:23.506Z,100271.50
2022-11-29T10:14:02.161Z,100270.41
2022-11-29T10:17:01.315Z,100273.38
2022-11-29T10:19:44.774Z,100263.31
2022-11-29T10:22:56.364Z,100274.81
2022-11-29T10:25:57.089Z,100261.69
2022-11-29T10:28:36.526Z,100258.19
2022-11-29T10:31:34.793Z,100256.88
2022-11-29T10:34:24.819Z,100264.97
2022-11-29T10:37:01.739Z,100268.50
2022-11-29T10:39:54.437Z,100266.44
2022-11-29T10:42:47.148Z,100259.22
2022-11-29T10:45:50.902Z,100263.94
2022-11-29T10:48:25.505Z,100255.63
2022-11-29T10:50:55.444Z,100250.34
2022-11-29T10:53:32.780Z,100251.47
2022-11-29T10:56:29.687Z,100254.66
2022-11-29T10:59:09.239Z,100250.56
2022-11-29T11:01:43.419Z,100247.13
2022-11-29T11:04:30.652Z,100241.75
2022-11-29T11:07:05.011Z,100241.97
2022-11-29T11:09:50.674Z,100234.97
2022-11-29T11:12:29.754Z,100243.63
2022-11-29T11:15:24.847Z,100247.19
2022-11-29T11:18:24.159Z,100245.25
2022-11-29T11:20:58.961Z,100252.88
2022-11-29T11:23:42.767Z,100252.34
2022-11-29T11:26:15.024Z,100250.88
2022-11-29T11:29:00.744Z,100244.31
2022-11-29T11:31:40.921Z,100243.97
2022-11-29T11:34:35.891Z,100242.19
2022-11-29T11:37:16.295Z,100246.97
2022-11-29T11:39:50.820Z,100252.06
2022-11-29T11:42:37.429Z,100257.41
2022-11-29T11:45:13.129Z,100257.88
2022-11-29T11:48:00.365Z,100254.06
2022-11-29T11:50:58.406Z,100254.44
2022-11-29T11:53:36.972Z,100263.56
2022-11-29T11:56:12.875Z,100258.94
2022-11-29T11:58:54.781Z,100255.28
2022-11-29T12:01:37.498Z,100245.91
2022-11-29T12:04:21.845Z,100248.88
2022-11-29T12:07:06.259Z,100246.63
2022-11-29T12:09:53.235Z,100234.75
2022-11-29T12:12:39.246Z,100228.50
2022-11-29T12:15:38.334Z,100233.16
2022-11-29T12:18:16.681Z,100235.66
2022-11-29T12:21:24.849Z,100231.88
2022-11-29T12:24:21.189Z,100238.59
2022-11-29T12:26:58.942Z,100230.72
2022-11-29T12:29:33.447Z,100236.63
2022-11-29T12:32:28.178Z,100242.34
2022-11-29T12:35:32.220Z,100238.97
2022-11-29T12:38:39.987Z,100237.03
2022-11-29T12:41:56.930Z,100243.03
2022-11-29T12:45:00.604Z,100238.97
2022-11-29T12:48:01.523Z,100230.03
2022-11-29T12:51:02.407Z,100231.19
2022-11-29T12:54:16.260Z,100228.44
2022-11-29T12:57:24.572Z,100225.66
2022-11-29T12:59:57.115Z,100238.84
2022-11-29T13:02:41.531Z,100226.44
2022-11-29T13:05:42.698Z,100231.50
2022-11-29T13:08:53.609Z,100233.84
2022-11-29T13:11:40.699Z,100237.34
2022-11-29T13:14:51.799Z,100241.75
2022-11-29T13:18:15.182Z,100252.22
2022-11-29T13:21:24.479Z,100245.72
2022-11-29T13:24:23.640Z,100246.81
2022-11-29T13:26:54.949Z,100252.66
2022-11-29T13:29:25.370Z,100252.44
2022-11-29T13:31:55.159Z,100236.25
2022-11-29T13:34:39.702Z,100242.72
2022-11-29T13:37:19.051Z,100240.59
2022-11-29T13:40:09.973Z,100252.44
2022-11-29T13:43:30.461Z,100240.00
2022-11-29T13:46:42.181Z,100244.78
2022-11-29T13:49:58.831Z,100245.00
2022-11-29T13:53:18.983Z,100246.63
2022-11-29T13:56:01.118Z,100247.78
2022-11-29T13:58:35.792Z,100240.19
2022-11-29T14:01:15.371Z,100243.06
2022-11-29T14:04:03.023Z,100229.22
2022-11-29T14:06:38.540Z,100243.47
2022-11-29T14:10:03.903Z,100249.06
2022-11-29T14:12:51.237Z,100247.34
2022-11-29T14:15:26.825Z,100248.22
2022-11-29T14:18:09.605Z,100249.72
2022-11-29T14:20:45.920Z,100253.16
2022-11-29T14:23:41.775Z,100252.16
2022-11-29T14:26:11.150Z,100252.91
2022-11-29T14:28:41.169Z,100257.28
2022-11-29T14:31:11.378Z,100248.81
2022-11-29T14:34:14.410Z,100252.09
2022-11-29T14:37:37.368Z,100253.91
2022-11-29T14:40:42.317Z,100251.00
2022-11-29T14:43:37.434Z,100239.19
2022-11-29T14:46:15.017Z,100235.66
2022-11-29T14:48:56.779Z,100237.34
2022-11-29T14:51:31.985Z,100239.78
2022-11-29T14:54:21.790Z,100233.09
2022-11-29T14:56:51.306Z,100234.03
2022-11-29T14:59:47.953Z,100232.31
2022-11-29T15:02:40.060Z,100238.41
2022-11-29T15:05:44.704Z,100230.00
2022-11-29T15:09:00.246Z,100250.38
2022-11-29T15:12:08.267Z,100244.34
2022-11-29T15:15:24.332Z,100242.72
2022-11-29T15:18:36.472Z,100238.66
2022-11-29T15:21:30.868Z,100236.91
2022-11-29T15:24:13.199Z,100243.09
2022-11-29T15:27:04.310Z,100240.31
2022-11-29T15:29:33.997Z,100241.13
2022-11-29T15:32:06.906Z,100238.53
2022-11-29T15:34:47.091Z,100241.47
2022-11-29T15:37:35.709Z,100241.06
2022-11-29T15:40:22.528Z,100247.66
2022-11-29T15:43:02.113Z,100245.63
2022-11-29T15:45:39.536Z,100243.56
2022-11-29T15:48:27.720Z,100234.31
2022-11-29T15:51:15.729Z,100228.72
2022-11-29T15:54:12.648Z,100231.75
2022-11-29T15:56:59.972Z,100227.78
2022-11-29T15:59:48.806Z,100218.13
2022-11-29T16:02:27.997Z,100211.09
2022-11-29T16:05:24.503Z,100224.88
2022-11-29T16:08:00.812Z,100236.75
2022-11-29T16:10:39.721Z,100241.13
2022-11-29T16:13:37.083Z,100244.72
2022-11-29T16:16:21.408Z,100240.41
2022-11-29T16:18:51.762Z,100240.19
2022-11-29T16:21:32.693Z,100250.06
2022-11-29T16:24:18.609Z,100254.47
2022-11-29T16:26:51.587Z,100246.34
2022-11-29T16:29:33.549Z,100239.03
2022-11-29T16:32:25.809Z,100233.09
2022-11-29T16:35:05.356Z,100237.97
2022-11-29T16:37:45.028Z,100248.44
2022-11-29T16:40:34.951Z,100255.81
2022-11-29T16:43:04.584Z,100261.00
2022-11-29T16:45:38.831Z,100261.00
2022-11-29T16:48:26.839Z,100267.25
2022-11-29T16:51:25.935Z,100259.19
2022-11-29T16:53:55.996Z,100256.38
2022-11-29T16:56:28.868Z,100265.38
2022-11-29T16:59:25.078Z,100258.50
2022-11-29T17:01:52.719Z,100252.50
2022-11-29T17:04:24.555Z,100267.06
2022-11-29T17:06:57.120Z,100266.00
2022-11-29T17:09:32.728Z,100266.00
2022-11-29T17:12:04.456Z,100260.78
2022-11-29T17:14:34.156Z,100268.25
2022-11-29T17:17:04.434Z,100264.06
2022-11-29T17:19:34.055Z,100260.44
2022-11-29T17:22:04.850Z,100279.50
2022-11-29T17:24:34.179Z,100278.06
2022-11-29T17:27:04.408Z,100269.41
2022-11-29T17:29:34.841Z,100274.56
2022-11-29T17:32:04.830Z,100279.16
2022-11-29T17:34:33.624Z,100285.09
2022-11-29T17:37:03.329Z,100281.28
2022-11-29T17:39:33.376Z,100279.63
2022-11-29T17:42:01.259Z,100276.91
2022-11-29T17:44:34.041Z,100278.94
2022-11-29T17:47:03.613Z,100280.28
2022-11-29T17:49:33.566Z,100283.94
2022-11-29T17:52:03.827Z,100291.34
2022-11-29T17:54:33.633Z,100285.03
2022-11-29T17:57:06.332Z,100282.31
2022-11-29T17:59:35.955Z,100280.03
2022-11-29T18:02:05.629Z,100280.66
2022-11-29T18:04:35.282Z,100284.53
2022-11-29T18:07:03.020Z,100276.88
2022-11-29T18:09:32.607Z,100280.78
2022-11-29T18:12:02.599Z,100268.06
2022-11-29T18:14:33.120Z,100274.13
2022-11-29T18:17:02.975Z,100279.28
2022-11-29T18:19:32.774Z,100281.47
2022-11-29T18:22:03.000Z,100277.88
2022-11-29T18:24:46.084Z,100285.66
2022-11-29T18:27:15.751Z,100288.31
2022-11-29T18:29:45.299Z,100289.03
2022-11-29T18:32:14.864Z,100288.13
2022-11-29T18:34:44.628Z,100291.00
2022-11-29T18:37:23.378Z,100290.19
2022-11-29T18:39:58.096Z,100293.69
2022-11-29T18:42:27.689Z,100285.88
2022-11-29T18:44:58.921Z,100286.69
2022-11-29T18:47:30.743Z,100282.16
2022-11-29T18:49:58.518Z,100279.66
2022-11-29T18:52:28.091Z,100283.44
2022-11-29T18:54:58.611Z,100279.81
2022-11-29T18:57:26.449Z,100284.78
2022-11-29T18:59:56.068Z,100282.38
2022-11-29T19:02:25.725Z,100284.22
2022-11-29T19:04:55.482Z,100286.03
2022-11-29T19:07:26.276Z,100279.88
2022-11-29T19:09:56.016Z,100276.63
2022-11-29T19:12:26.907Z,100280.53
2022-11-29T19:14:56.655Z,100292.84
2022-11-29T19:17:26.382Z,100291.25
2022-11-29T19:19:56.039Z,100289.72
2022-11-29T19:22:25.685Z,100293.16
2022-11-29T19:24:55.772Z,100294.75
2022-11-29T19:27:26.298Z,100288.56
2022-11-29T19:29:55.934Z,100290.41
2022-11-29T19:32:25.499Z,100286.97
2022-11-29T19:34:53.327Z,100284.63
2022-11-29T19:37:22.862Z,100287.13
2022-11-29T19:39:52.688Z,100283.31
2022-11-29T19:42:22.308Z,100294.03
2022-11-29T19:45:15.918Z,100293.16
2022-11-29T19:47:41.604Z,100294.06
2022-11-29T19:50:12.332Z,100290.63
2022-11-29T19:52:41.904Z,100293.78
2022-11-29T19:55:11.530Z,100293.25
2022-11-29T19:57:41.107Z,100291.44
2022-11-29T20:00:11.689Z,100294.97
2022-11-29T20:02:41.290Z,100297.22
2022-11-29T20:05:10.871Z,100297.56
2022-11-29T20:07:41.477Z,100296.03
2022-11-29T20:10:11.956Z,100291.22
2022-11-29T20:12:41.581Z,100290.28
2022-11-29T20:15:11.583Z,100288.47
2022-11-29T20:17:42.585Z,100288.66
2022-11-29T20:20:13.030Z,100287.94
2022-11-29T20:22:42.719Z,100289.19
2022-11-29T20:25:13.478Z,100292.44
2022-11-29T20:27:43.083Z,100287.03
2022-11-29T20:30:14.034Z,100286.00
2022-11-29T20:32:45.490Z,100290.13
2022-11-29T20:35:17.377Z,100299.06
2022-11-29T20:38:34.588Z,100287.47
2022-11-29T20:41:21.365Z,100284.94
2022-11-29T20:44:02.844Z,100291.84
2022-11-29T20:46:32.762Z,100281.38
2022-11-29T20:49:06.661Z,100283.25
2022-11-29T20:51:57.878Z,100282.63
2022-11-29T20:54:27.408Z,100276.47
2022-11-29T20:56:56.963Z,100284.44
2022-11-29T20:59:27.442Z,100280.72
2022-11-29T21:02:01.198Z,100278.00
2022-11-29T21:04:30.790Z,100281.53
2022-11-29T21:07:00.398Z,100282.25
2022-11-29T21:09:29.886Z,100281.66
2022-11-29T21:11:59.970Z,100285.16
2022-11-29T21:14:30.069Z,100280.47
2022-11-29T21:17:00.231Z,100286.16
2022-11-29T21:19:30.329Z,100289.38
2022-11-29T21:22:21.136Z,100284.16
2022-11-29T21:25:30.367Z,100285.88
2022-11-29T21:28:01.917Z,100284.94
2022-11-29T21:30:31.830Z,100289.31
2022-11-29T21:33:01.839Z,100286.69
2022-11-29T21:35:31.434Z,100280.22
2022-11-29T21:38:02.687Z,100289.00
2022-11-29T21:40:32.229Z,100286.50
2022-11-29T21:43:01.715Z,100282.09
2022-11-29T21:45:31.226Z,100284.75
2022-11-29T21:48:01.651Z,100290.00
2022-11-29T21:50:31.168Z,100282.94
2022-11-29T21:53:00.716Z,100286.31
2022-11-29T21:55:32.236Z,100289.91
2022-11-29T21:58:02.062Z,100296.94
2022-11-29T22:00:37.172Z,100294.34
2022-11-29T22:03:07.032Z,100292.13
2022-11-29T22:05:36.613Z,100292.91
2022-11-29T22:08:07.013Z,100289.56
2022-11-29T22:10:36.465Z,100278.16
2022-11-29T22:13:06.144Z,100280.59
2022-11-29T22:15:35.646Z,100284.88
2022-11-29T22:18:05.623Z,100291.13
2022-11-29T22:20:35.166Z,100283.81
2022-11-29T22:23:04.762Z,100283.88
2022-11-29T22:25:34.332Z,100286.47
2022-11-29T22:28:03.857Z,100286.97
2022-11-29T22:30:33.387Z,100278.22
2022-11-29T22:33:02.901Z,100279.25
2022-11-29T22:35:32.374Z,100281.88
2022-11-29T22:38:01.892Z,100270.81
2022-11-29T22:40:31.373Z,100273.84
2022-11-29T22:43:00.917Z,100279.16
2022-11-29T22:45:30.423Z,100278.16
2022-11-29T22:47:59.983Z,100275.22
2022-11-29T22:50:29.485Z,100282.53
2022-11-29T22:52:58.222Z,100278.06
2022-11-29T22:55:26.935Z,100274.31
2022-11-29T22:57:56.388Z,100278.56
2022-11-29T23:00:26.315Z,100272.56
2022-11-29T23:02:58.882Z,100276.44
2022-11-29T23:05:32.305Z,100276.63
2022-11-29T23:08:02.097Z,100276.84
2022-11-29T23:10:31.544Z,100279.34
2022-11-29T23:13:02.985Z,100274.03
2022-11-29T23:15:32.520Z,100273.78
2022-11-29T23:18:01.975Z,100280.81
2022-11-29T23:20:31.458Z,100277.22
2022-11-29T23:23:00.914Z,100267.56
2022-11-29T23:25:30.395Z,100264.22
2022-11-29T23:27:58.107Z,100272.94
2022-11-29T23:30:26.673Z,100267.47
2022-11-29T23:32:56.166Z,100261.56
2022-11-29T23:35:25.856Z,100269.03
2022-11-29T23:37:55.410Z,100271.91
2022-11-29T23:40:24.987Z,100258.91
2022-11-29T23:42:54.783Z,100259.19
2022-11-29T23:45:24.245Z,100262.06
2022-11-29T23:47:53.701Z,100265.97
2022-11-29T23:50:24.876Z,100261.69
2022-11-29T23:52:57.219Z,100254.53
2022-11-29T23:55:29.026Z,100257.91
2022-11-29T23:58:01.910Z,100252.72
